sensor_id;sensor_type;location;lat;lon;timestamp;pressure;altitude;pressure_sealevel;temperature;humidity
42771;BME280;28426;42.872;25.314;2023-04-27T00:01:10;96557.38;;;7.53;89.66
42771;BME280;28426;42.872;25.314;2023-04-27T00:03:41;96564.13;;;7.55;89.28
42771;BME280;28426;42.872;25.314;2023-04-27T00:06:15;96556.66;;;7.59;89.12
42771;BME280;28426;42.872;25.314;2023-04-27T00:08:46;96556.28;;;7.62;88.63
42771;BME280;28426;42.872;25.314;2023-04-27T00:11:17;96555.13;;;7.65;88.20
42771;BME280;28426;42.872;25.314;2023-04-27T00:13:49;96557.56;;;7.66;87.83
42771;BME280;28426;42.872;25.314;2023-04-27T00:16:20;96557.56;;;7.66;87.44
42771;BME280;28426;42.872;25.314;2023-04-27T00:18:51;96567.84;;;7.69;87.59
42771;BME280;28426;42.872;25.314;2023-04-27T00:21:25;96565.19;;;7.69;87.26
42771;BME280;28426;42.872;25.314;2023-04-27T00:23:56;96571.16;;;7.71;86.83
42771;BME280;28426;42.872;25.314;2023-04-27T00:26:27;96560.53;;;7.71;86.77
42771;BME280;28426;42.872;25.314;2023-04-27T00:28:59;96577.09;;;7.74;86.82
42771;BME280;28426;42.872;25.314;2023-04-27T00:31:29;96571.63;;;7.75;86.41
42771;BME280;28426;42.872;25.314;2023-04-27T00:34:01;96570.59;;;7.76;86.62
42771;BME280;28426;42.872;25.314;2023-04-27T00:36:35;96571.28;;;7.78;86.38
42771;BME280;28426;42.872;25.314;2023-04-27T00:39:06;96580.03;;;7.79;86.17
42771;BME280;28426;42.872;25.314;2023-04-27T00:41:37;96586.03;;;7.81;86.52
42771;BME280;28426;42.872;25.314;2023-04-27T00:44:08;96583.38;;;7.81;85.99
42771;BME280;28426;42.872;25.314;2023-04-27T00:46:39;96586.47;;;7.84;85.74
42771;BME280;28426;42.872;25.314;2023-04-27T00:49:13;96587.31;;;7.85;85.59
42771;BME280;28426;42.872;25.314;2023-04-27T00:51:46;96588.97;;;7.86;85.80
42771;BME280;28426;42.872;25.314;2023-04-27T00:54:18;96593.25;;;7.87;85.54
42771;BME280;28426;42.872;25.314;2023-04-27T00:56:51;96595.91;;;7.87;85.54
42771;BME280;28426;42.872;25.314;2023-04-27T00:59:22;96596.75;;;7.88;85.55
42771;BME280;28426;42.872;25.314;2023-04-27T01:01:53;96602.06;;;7.88;85.18
42771;BME280;28426;42.872;25.314;2023-04-27T01:04:27;96605.91;;;7.85;85.36
42771;BME280;28426;42.872;25.314;2023-04-27T01:07:01;96602.59;;;7.83;85.13
42771;BME280;28426;42.872;25.314;2023-04-27T01:09:32;96604.22;;;7.84;85.26
42771;BME280;28426;42.872;25.314;2023-04-27T01:12:03;96611.22;;;7.85;85.22
42771;BME280;28426;42.872;25.314;2023-04-27T01:14:35;96593.88;;;7.74;85.43
42771;BME280;28426;42.872;25.314;2023-04-27T01:17:06;96619.19;;;7.85;85.21
42771;BME280;28426;42.872;25.314;2023-04-27T01:19:37;96622.81;;;7.84;85.19
42771;BME280;28426;42.872;25.314;2023-04-27T01:22:12;96622.81;;;7.84;85.58
42771;BME280;28426;42.872;25.314;2023-04-27T01:24:46;96619.53;;;7.82;85.62
42771;BME280;28426;42.872;25.314;2023-04-27T01:27:17;96626.22;;;7.78;85.71
42771;BME280;28426;42.872;25.314;2023-04-27T01:29:47;96629.47;;;7.65;86.34
42771;BME280;28426;42.872;25.314;2023-04-27T01:32:18;96628.06;;;7.54;88.82
42771;BME280;28426;42.872;25.314;2023-04-27T01:34:52;96616.25;;;7.33;88.81
42771;BME280;28426;42.872;25.314;2023-04-27T01:37:25;96631.88;;;7.28;89.62
42771;BME280;28426;42.872;25.314;2023-04-27T01:39:59;96630.81;;;7.14;91.08
42771;BME280;28426;42.872;25.314;2023-04-27T01:42:32;96634.63;;;7.11;92.46
42771;BME280;28426;42.872;25.314;2023-04-27T01:45:03;96629.38;;;7.03;91.56
42771;BME280;28426;42.872;25.314;2023-04-27T01:47:34;96634.84;;;7.01;93.43
42771;BME280;28426;42.872;25.314;2023-04-27T01:50:06;96639.03;;;6.96;93.45
42771;BME280;28426;42.872;25.314;2023-04-27T01:52:39;96641.69;;;6.96;93.38
42771;BME280;28426;42.872;25.314;2023-04-27T01:55:12;96639.41;;;6.84;93.65
42771;BME280;28426;42.872;25.314;2023-04-27T01:57:43;96646.50;;;6.92;94.08
42771;BME280;28426;42.872;25.314;2023-04-27T02:00:14;96640.72;;;6.88;95.71
42771;BME280;28426;42.872;25.314;2023-04-27T02:02:49;96641.69;;;6.96;95.82
42771;BME280;28426;42.872;25.314;2023-04-27T02:05:22;96644.69;;;6.92;96.02
42771;BME280;28426;42.872;25.314;2023-04-27T02:07:53;96646.00;;;6.97;96.14
42771;BME280;28426;42.872;25.314;2023-04-27T02:10:26;96654.97;;;6.96;96.38
42771;BME280;28426;42.872;25.314;2023-04-27T02:12:59;96643.81;;;7.00;96.10
42771;BME280;28426;42.872;25.314;2023-04-27T02:15:30;96648.34;;;6.91;95.01
42771;BME280;28426;42.872;25.314;2023-04-27T02:18:02;96656.28;;;6.91;96.49
42771;BME280;28426;42.872;25.314;2023-04-27T02:20:33;96658.28;;;6.89;95.52
42771;BME280;28426;42.872;25.314;2023-04-27T02:23:05;96648.97;;;6.93;96.22
42771;BME280;28426;42.872;25.314;2023-04-27T02:25:38;96656.28;;;6.91;95.56
42771;BME280;28426;42.872;25.314;2023-04-27T02:28:13;96661.25;;;6.94;95.85
42771;BME280;28426;42.872;25.314;2023-04-27T02:30:44;96655.28;;;6.92;95.17
42771;BME280;28426;42.872;25.314;2023-04-27T02:33:15;96655.94;;;6.94;95.19
42771;BME280;28426;42.872;25.314;2023-04-27T02:35:46;96662.59;;;6.90;95.02
42771;BME280;28426;42.872;25.314;2023-04-27T02:38:17;96663.59;;;6.89;96.75
42771;BME280;28426;42.872;25.314;2023-04-27T02:40:54;96669.72;;;6.90;94.48
42771;BME280;28426;42.872;25.314;2023-04-27T02:43:25;96671.22;;;6.84;94.45
42771;BME280;28426;42.872;25.314;2023-04-27T02:45:56;96655.56;;;6.66;92.25
42771;BME280;28426;42.872;25.314;2023-04-27T02:48:32;96665.81;;;6.69;95.88
42771;BME280;28426;42.872;25.314;2023-04-27T02:51:04;96670.66;;;6.65;95.42
42771;BME280;28426;42.872;25.314;2023-04-27T02:53:35;96672.59;;;6.72;96.57
42771;BME280;28426;42.872;25.314;2023-04-27T02:56:09;96671.28;;;6.67;95.28
42771;BME280;28426;42.872;25.314;2023-04-27T02:58:40;96675.63;;;6.69;94.56
42771;BME280;28426;42.872;25.314;2023-04-27T03:01:11;96673.28;;;6.65;95.90
42771;BME280;28426;42.872;25.314;2023-04-27T03:03:44;96659.72;;;6.60;96.22
42771;BME280;28426;42.872;25.314;2023-04-27T03:06:16;96675.78;;;6.67;94.61
42771;BME280;28426;42.872;25.314;2023-04-27T03:08:47;96686.22;;;6.69;94.20
42771;BME280;28426;42.872;25.314;2023-04-27T03:11:20;96686.25;;;6.60;95.08
42771;BME280;28426;42.872;25.314;2023-04-27T03:13:52;96695.50;;;6.64;95.03
42771;BME280;28426;42.872;25.314;2023-04-27T03:16:22;96692.53;;;6.59;94.64
42771;BME280;28426;42.872;25.314;2023-04-27T03:18:53;96692.56;;;6.51;92.72
42771;BME280;28426;42.872;25.314;2023-04-27T03:21:24;96687.97;;;6.36;96.18
42771;BME280;28426;42.872;25.314;2023-04-27T03:23:55;96712.63;;;6.45;95.33
42771;BME280;28426;42.872;25.314;2023-04-27T03:26:29;96706.16;;;6.39;93.73
42771;BME280;28426;42.872;25.314;2023-04-27T03:29:00;96717.91;;;6.45;94.11
42771;BME280;28426;42.872;25.314;2023-04-27T03:31:30;96710.97;;;6.36;92.21
42771;BME280;28426;42.872;25.314;2023-04-27T03:34:01;96718.09;;;6.35;90.15
42771;BME280;28426;42.872;25.314;2023-04-27T03:36:32;96718.78;;;6.21;89.32
42771;BME280;28426;42.872;25.314;2023-04-27T03:39:03;96725.06;;;6.03;88.11
42771;BME280;28426;42.872;25.314;2023-04-27T03:41:37;96721.56;;;5.78;87.20
42771;BME280;28426;42.872;25.314;2023-04-27T03:44:10;96724.88;;;5.71;92.60
42771;BME280;28426;42.872;25.314;2023-04-27T03:46:41;96722.69;;;5.67;92.80
42771;BME280;28426;42.872;25.314;2023-04-27T03:49:12;96722.88;;;5.73;94.82
42771;BME280;28426;42.872;25.314;2023-04-27T03:51:43;96729.31;;;5.71;92.10
42771;BME280;28426;42.872;25.314;2023-04-27T03:54:14;96732.97;;;5.78;92.86
42771;BME280;28426;42.872;25.314;2023-04-27T03:56:48;96723.34;;;5.77;92.38
42771;BME280;28426;42.872;25.314;2023-04-27T03:59:19;96726.00;;;5.85;92.15
42771;BME280;28426;42.872;25.314;2023-04-27T04:01:51;96724.06;;;5.87;92.18
42771;BME280;28426;42.872;25.314;2023-04-27T04:04:24;96731.00;;;5.97;92.79
42771;BME280;28426;42.872;25.314;2023-04-27T04:06:56;96729.16;;;5.97;92.69
42771;BME280;28426;42.872;25.314;2023-04-27T04:09:27;96734.81;;;5.94;92.17
42771;BME280;28426;42.872;25.314;2023-04-27T04:12:00;96749.88;;;5.94;95.66
42771;BME280;28426;42.872;25.314;2023-04-27T04:14:31;96747.53;;;5.99;93.71
42771;BME280;28426;42.872;25.314;2023-04-27T04:17:02;96744.75;;;6.00;94.37
42771;BME280;28426;42.872;25.314;2023-04-27T04:19:33;96745.41;;;6.02;92.98
42771;BME280;28426;42.872;25.314;2023-04-27T04:22:04;96738.09;;;5.96;92.00
42771;BME280;28426;42.872;25.314;2023-04-27T04:24:34;96754.34;;;5.85;90.95
42771;BME280;28426;42.872;25.314;2023-04-27T04:27:09;96748.84;;;5.70;93.12
42771;BME280;28426;42.872;25.314;2023-04-27T04:29:40;96762.25;;;5.76;95.46
42771;BME280;28426;42.872;25.314;2023-04-27T04:32:11;96764.06;;;5.76;95.26
42771;BME280;28426;42.872;25.314;2023-04-27T04:34:47;96763.44;;;5.82;95.57
42771;BME280;28426;42.872;25.314;2023-04-27T04:37:20;96763.75;;;5.79;93.44
42771;BME280;28426;42.872;25.314;2023-04-27T04:39:51;96769.06;;;5.79;92.35
42771;BME280;28426;42.872;25.314;2023-04-27T04:42:27;96768.91;;;5.81;93.87
42771;BME280;28426;42.872;25.314;2023-04-27T04:44:58;96765.75;;;5.85;93.36
42771;BME280;28426;42.872;25.314;2023-04-27T04:47:32;96772.34;;;5.81;93.28
42771;BME280;28426;42.872;25.314;2023-04-27T04:50:04;96778.63;;;5.72;92.20
42771;BME280;28426;42.872;25.314;2023-04-27T04:52:35;96773.97;;;5.57;90.97
42771;BME280;28426;42.872;25.314;2023-04-27T04:55:07;96774.31;;;5.62;93.45
42771;BME280;28426;42.872;25.314;2023-04-27T04:57:41;96771.81;;;5.61;95.06
42771;BME280;28426;42.872;25.314;2023-04-27T05:00:13;96773.31;;;5.72;95.88
42771;BME280;28426;42.872;25.314;2023-04-27T05:02:45;96785.56;;;5.73;95.55
42771;BME280;28426;42.872;25.314;2023-04-27T05:05:16;96786.44;;;5.82;94.80
42771;BME280;28426;42.872;25.314;2023-04-27T05:07:47;96782.44;;;5.78;93.47
42771;BME280;28426;42.872;25.314;2023-04-27T05:10:18;96787.53;;;5.62;91.67
42771;BME280;28426;42.872;25.314;2023-04-27T05:12:51;96794.28;;;5.48;92.40
42771;BME280;28426;42.872;25.314;2023-04-27T05:15:22;96793.34;;;5.58;96.36
42771;BME280;28426;42.872;25.314;2023-04-27T05:17:53;96799.59;;;5.57;94.56
42771;BME280;28426;42.872;25.314;2023-04-27T05:20:24;96794.84;;;5.69;95.58
42771;BME280;28426;42.872;25.314;2023-04-27T05:22:55;96801.94;;;5.68;94.06
42771;BME280;28426;42.872;25.314;2023-04-27T05:25:29;96804.78;;;5.75;94.65
42771;BME280;28426;42.872;25.314;2023-04-27T05:28:02;96795.03;;;5.75;94.75
42771;BME280;28426;42.872;25.314;2023-04-27T05:30:33;96800.50;;;5.82;94.40
42771;BME280;28426;42.872;25.314;2023-04-27T05:33:05;96803.47;;;5.79;94.41
42771;BME280;28426;42.872;25.314;2023-04-27T05:35:36;96810.38;;;5.72;92.86
42771;BME280;28426;42.872;25.314;2023-04-27T05:38:06;96813.34;;;5.60;92.12
42771;BME280;28426;42.872;25.314;2023-04-27T05:40:37;96810.88;;;5.59;96.49
42771;BME280;28426;42.872;25.314;2023-04-27T05:43:11;96807.06;;;5.61;95.91
42771;BME280;28426;42.872;25.314;2023-04-27T05:45:42;96813.19;;;5.70;97.76
42771;BME280;28426;42.872;25.314;2023-04-27T05:48:13;96813.72;;;5.74;95.88
42771;BME280;28426;42.872;25.314;2023-04-27T05:50:43;96804.97;;;5.82;96.54
42771;BME280;28426;42.872;25.314;2023-04-27T05:53:14;96802.81;;;5.85;95.95
42771;BME280;28426;42.872;25.314;2023-04-27T05:55:45;96813.75;;;5.91;96.32
42771;BME280;28426;42.872;25.314;2023-04-27T05:58:19;96817.06;;;5.93;94.83
42771;BME280;28426;42.872;25.314;2023-04-27T06:00:49;96815.75;;;5.88;91.76
42771;BME280;28426;42.872;25.314;2023-04-27T06:03:20;96813.72;;;5.74;91.63
42771;BME280;28426;42.872;25.314;2023-04-27T06:05:55;96820.97;;;5.72;96.36
42771;BME280;28426;42.872;25.314;2023-04-27T06:08:26;96820.66;;;5.75;95.72
42771;BME280;28426;42.872;25.314;2023-04-27T06:10:57;96813.91;;;5.81;96.95
42771;BME280;28426;42.872;25.314;2023-04-27T06:13:31;96817.88;;;5.85;95.71
42771;BME280;28426;42.872;25.314;2023-04-27T06:16:02;96821.38;;;5.94;96.77
42771;BME280;28426;42.872;25.314;2023-04-27T06:18:33;96819.91;;;5.99;95.64
42771;BME280;28426;42.872;25.314;2023-04-27T06:21:04;96824.41;;;6.07;96.96
42771;BME280;28426;42.872;25.314;2023-04-27T06:23:35;96818.78;;;6.10;95.37
42771;BME280;28426;42.872;25.314;2023-04-27T06:26:06;96829.38;;;6.10;93.65
42771;BME280;28426;42.872;25.314;2023-04-27T06:28:39;96823.34;;;6.00;91.35
42771;BME280;28426;42.872;25.314;2023-04-27T06:31:10;96818.38;;;5.80;89.38
42771;BME280;28426;42.872;25.314;2023-04-27T06:33:41;96826.31;;;5.80;94.77
42771;BME280;28426;42.872;25.314;2023-04-27T06:36:12;96834.25;;;5.80;93.87
42771;BME280;28426;42.872;25.314;2023-04-27T06:38:43;96825.66;;;5.86;95.53
42771;BME280;28426;42.872;25.314;2023-04-27T06:41:14;96833.47;;;5.96;95.23
42771;BME280;28426;42.872;25.314;2023-04-27T06:43:48;96830.03;;;6.04;94.51
42771;BME280;28426;42.872;25.314;2023-04-27T06:46:19;96837.19;;;6.12;93.94
42771;BME280;28426;42.872;25.314;2023-04-27T06:48:50;96837.34;;;6.19;93.64
42771;BME280;28426;42.872;25.314;2023-04-27T06:51:21;96833.88;;;6.26;93.11
42771;BME280;28426;42.872;25.314;2023-04-27T06:53:52;96840.34;;;6.32;92.60
42771;BME280;28426;42.872;25.314;2023-04-27T06:56:23;96835.38;;;6.37;92.24
42771;BME280;28426;42.872;25.314;2023-04-27T06:58:57;96826.41;;;6.38;91.78
42771;BME280;28426;42.872;25.314;2023-04-27T07:01:28;96844.66;;;6.50;91.53
42771;BME280;28426;42.872;25.314;2023-04-27T07:03:59;96837.03;;;6.55;91.45
42771;BME280;28426;42.872;25.314;2023-04-27T07:06:31;96837.19;;;6.62;91.26
42771;BME280;28426;42.872;25.314;2023-04-27T07:09:03;96836.84;;;6.65;90.42
42771;BME280;28426;42.872;25.314;2023-04-27T07:11:46;96839.66;;;6.72;90.24
42771;BME280;28426;42.872;25.314;2023-04-27T07:14:20;96841.97;;;6.75;89.94
42771;BME280;28426;42.872;25.314;2023-04-27T07:16:50;96838.00;;;6.79;89.74
42771;BME280;28426;42.872;25.314;2023-04-27T07:19:21;96843.63;;;6.84;89.61
42771;BME280;28426;42.872;25.314;2023-04-27T07:21:52;96839.00;;;6.86;89.22
42771;BME280;28426;42.872;25.314;2023-04-27T07:24:23;96842.31;;;6.88;88.59
42771;BME280;28426;42.872;25.314;2023-04-27T07:26:54;96841.13;;;6.91;88.24
42771;BME280;28426;42.872;25.314;2023-04-27T07:29:28;96844.63;;;6.91;88.14
42771;BME280;28426;42.872;25.314;2023-04-27T07:32:00;96846.91;;;6.94;88.07
42771;BME280;28426;42.872;25.314;2023-04-27T07:34:30;96843.94;;;6.98;88.25
42771;BME280;28426;42.872;25.314;2023-04-27T07:37:19;96844.25;;;7.03;88.05
42771;BME280;28426;42.872;25.314;2023-04-27T07:39:50;96847.59;;;7.05;88.00
42771;BME280;28426;42.872;25.314;2023-04-27T07:42:21;96845.25;;;7.10;88.00
42771;BME280;28426;42.872;25.314;2023-04-27T07:44:55;96847.38;;;7.15;87.53
42771;BME280;28426;42.872;25.314;2023-04-27T07:47:26;96845.06;;;7.20;87.58
42771;BME280;28426;42.872;25.314;2023-04-27T07:49:57;96839.91;;;7.27;87.52
42771;BME280;28426;42.872;25.314;2023-04-27T07:52:30;96842.50;;;7.35;87.84
42771;BME280;28426;42.872;25.314;2023-04-27T07:55:00;96845.16;;;7.43;87.73
42771;BME280;28426;42.872;25.314;2023-04-27T07:57:31;96851.44;;;7.51;86.48
42771;BME280;28426;42.872;25.314;2023-04-27T08:00:06;96852.75;;;7.55;85.17
42771;BME280;28426;42.872;25.314;2023-04-27T08:02:40;96852.59;;;7.56;84.17
42771;BME280;28426;42.872;25.314;2023-04-27T08:05:12;96858.06;;;7.55;83.83
42771;BME280;28426;42.872;25.314;2023-04-27T08:07:43;96856.03;;;7.57;83.75
42771;BME280;28426;42.872;25.314;2023-04-27T08:10:14;96857.03;;;7.64;84.10
42771;BME280;28426;42.872;25.314;2023-04-27T08:12:46;96846.53;;;7.71;84.25
42771;BME280;28426;42.872;25.314;2023-04-27T08:15:19;96849.47;;;7.84;83.70
42771;BME280;28426;42.872;25.314;2023-04-27T08:17:50;96858.72;;;7.97;83.23
42771;BME280;28426;42.872;25.314;2023-04-27T08:20:21;96864.44;;;8.09;83.04
42771;BME280;28426;42.872;25.314;2023-04-27T08:22:52;96859.72;;;8.19;82.81
42771;BME280;28426;42.872;25.314;2023-04-27T08:25:23;96851.53;;;8.29;81.82
42771;BME280;28426;42.872;25.314;2023-04-27T08:27:54;96853.28;;;8.37;81.27
42771;BME280;28426;42.872;25.314;2023-04-27T08:30:27;96854.88;;;8.46;80.76
42771;BME280;28426;42.872;25.314;2023-04-27T08:32:58;96853.84;;;8.56;80.49
42771;BME280;28426;42.872;25.314;2023-04-27T08:35:29;96845.81;;;8.64;80.04
42771;BME280;28426;42.872;25.314;2023-04-27T08:38:00;96849.41;;;8.71;79.87
42771;BME280;28426;42.872;25.314;2023-04-27T08:40:30;96853.16;;;8.77;78.66
42771;BME280;28426;42.872;25.314;2023-04-27T08:43:01;96845.97;;;8.86;79.22
42771;BME280;28426;42.872;25.314;2023-04-27T08:45:35;96851.22;;;8.94;78.55
42771;BME280;28426;42.872;25.314;2023-04-27T08:48:05;96843.50;;;8.99;77.17
42771;BME280;28426;42.872;25.314;2023-04-27T08:50:37;96848.47;;;9.02;77.51
42771;BME280;28426;42.872;25.314;2023-04-27T08:53:17;96840.28;;;9.04;76.75
42771;BME280;28426;42.872;25.314;2023-04-27T08:55:49;96837.25;;;9.07;76.00
42771;BME280;28426;42.872;25.314;2023-04-27T08:58:21;96834.88;;;9.12;75.62
42771;BME280;28426;42.872;25.314;2023-04-27T09:00:55;96838.13;;;9.23;76.38
42771;BME280;28426;42.872;25.314;2023-04-27T09:03:26;96832.50;;;9.33;74.95
42771;BME280;28426;42.872;25.314;2023-04-27T09:05:57;96821.94;;;9.39;75.37
42771;BME280;28426;42.872;25.314;2023-04-27T09:08:41;96821.00;;;9.47;74.72
42771;BME280;28426;42.872;25.314;2023-04-27T09:11:12;96812.66;;;9.50;74.99
42771;BME280;28426;42.872;25.314;2023-04-27T09:13:44;96813.28;;;9.67;75.30
42771;BME280;28426;42.872;25.314;2023-04-27T09:16:22;96813.25;;;9.82;75.19
42771;BME280;28426;42.872;25.314;2023-04-27T09:18:54;96821.03;;;9.99;75.07
42771;BME280;28426;42.872;25.314;2023-04-27T09:21:27;96811.78;;;10.17;72.90
42771;BME280;28426;42.872;25.314;2023-04-27T09:23:57;96803.78;;;10.39;69.76
42771;BME280;28426;42.872;25.314;2023-04-27T09:26:39;96815.69;;;10.58;71.07
42771;BME280;28426;42.872;25.314;2023-04-27T09:29:10;96807.75;;;10.71;70.29
42771;BME280;28426;42.872;25.314;2023-04-27T09:31:44;96806.16;;;10.77;69.42
42771;BME280;28426;42.872;25.314;2023-04-27T09:34:15;96809.06;;;10.82;69.10
42771;BME280;28426;42.872;25.314;2023-04-27T09:36:46;96810.34;;;10.86;68.48
42771;BME280;28426;42.872;25.314;2023-04-27T09:39:17;96810.34;;;10.86;68.01
42771;BME280;28426;42.872;25.314;2023-04-27T09:41:48;96807.66;;;10.86;66.29
42771;BME280;28426;42.872;25.314;2023-04-27T09:44:19;96808.88;;;10.84;66.39
42771;BME280;28426;42.872;25.314;2023-04-27T09:46:55;96798.41;;;10.82;66.23
42771;BME280;28426;42.872;25.314;2023-04-27T09:49:27;96791.41;;;10.81;67.09
42771;BME280;28426;42.872;25.314;2023-04-27T09:51:58;96802.09;;;10.81;66.62
42771;BME280;28426;42.872;25.314;2023-04-27T09:54:30;96797.59;;;10.82;66.33
42771;BME280;28426;42.872;25.314;2023-04-27T09:57:11;96793.72;;;10.84;65.64
42771;BME280;28426;42.872;25.314;2023-04-27T10:00:00;96795.72;;;10.82;64.54
42771;BME280;28426;42.872;25.314;2023-04-27T10:02:44;96796.75;;;10.81;64.70
42771;BME280;28426;42.872;25.314;2023-04-27T10:05:39;96790.81;;;10.79;64.28
42771;BME280;28426;42.872;25.314;2023-04-27T10:08:12;96791.78;;;10.78;64.05
42771;BME280;28426;42.872;25.314;2023-04-27T10:10:46;96788.50;;;10.76;62.72
42771;BME280;28426;42.872;25.314;2023-04-27T10:13:23;96790.34;;;10.76;63.63
42771;BME280;28426;42.872;25.314;2023-04-27T10:15:54;96784.56;;;10.72;63.07
42771;BME280;28426;42.872;25.314;2023-04-27T10:18:29;96794.22;;;10.73;62.53
42771;BME280;28426;42.872;25.314;2023-04-27T10:21:09;96797.09;;;10.71;62.14
42771;BME280;28426;42.872;25.314;2023-04-27T10:23:45;96797.50;;;10.68;61.44
42771;BME280;28426;42.872;25.314;2023-04-27T10:26:24;96794.00;;;10.68;62.25
42771;BME280;28426;42.872;25.314;2023-04-27T10:29:04;96790.28;;;10.69;62.46
42771;BME280;28426;42.872;25.314;2023-04-27T10:31:42;96799.97;;;10.70;62.57
42771;BME280;28426;42.872;25.314;2023-04-27T10:34:17;96801.63;;;10.71;62.44
42771;BME280;28426;42.872;25.314;2023-04-27T10:36:48;96797.91;;;10.72;62.45
42771;BME280;28426;42.872;25.314;2023-04-27T10:39:20;96801.22;;;10.74;62.53
42771;BME280;28426;42.872;25.314;2023-04-27T10:42:12;96805.34;;;10.77;62.24
42771;BME280;28426;42.872;25.314;2023-04-27T10:44:53;96801.66;;;10.78;61.73
42771;BME280;28426;42.872;25.314;2023-04-27T10:47:36;96798.63;;;10.81;61.63
42771;BME280;28426;42.872;25.314;2023-04-27T10:50:12;96803.72;;;10.82;62.12
42771;BME280;28426;42.872;25.314;2023-04-27T10:52:45;96799.66;;;10.86;61.87
42771;BME280;28426;42.872;25.314;2023-04-27T10:55:17;96801.34;;;10.88;60.84
42771;BME280;28426;42.872;25.314;2023-04-27T10:57:50;96810.81;;;10.90;61.36
42771;BME280;28426;42.872;25.314;2023-04-27T11:00:24;96800.50;;;10.87;62.09
42771;BME280;28426;42.872;25.314;2023-04-27T11:02:57;96804.00;;;10.88;62.06
42771;BME280;28426;42.872;25.314;2023-04-27T11:05:30;96808.88;;;10.84;62.30
42771;BME280;28426;42.872;25.314;2023-04-27T11:08:06;96808.47;;;10.80;62.14
42771;BME280;28426;42.872;25.314;2023-04-27T11:10:42;96807.19;;;10.76;62.68
42771;BME280;28426;42.872;25.314;2023-04-27T11:13:15;96808.59;;;10.72;62.69
42771;BME280;28426;42.872;25.314;2023-04-27T11:15:47;96803.63;;;10.69;62.73
42771;BME280;28426;42.872;25.314;2023-04-27T11:18:20;96794.97;;;10.60;63.07
42771;BME280;28426;42.872;25.314;2023-04-27T11:21:05;96804.78;;;10.59;63.60
42771;BME280;28426;42.872;25.314;2023-04-27T11:23:37;96805.19;;;10.56;64.02
42771;BME280;28426;42.872;25.314;2023-04-27T11:26:09;96810.91;;;10.53;64.60
42771;BME280;28426;42.872;25.314;2023-04-27T11:28:41;96797.69;;;10.45;65.25
42771;BME280;28426;42.872;25.314;2023-04-27T11:31:12;96812.50;;;10.48;65.74
42771;BME280;28426;42.872;25.314;2023-04-27T11:33:47;96812.06;;;10.44;66.69
42771;BME280;28426;42.872;25.314;2023-04-27T11:36:22;96812.41;;;10.41;67.27
42771;BME280;28426;42.872;25.314;2023-04-27T11:38:56;96815.25;;;10.39;67.68
42771;BME280;28426;42.872;25.314;2023-04-27T11:41:37;96808.47;;;10.37;68.20
42771;BME280;28426;42.872;25.314;2023-04-27T11:44:12;96814.81;;;10.36;68.80
42771;BME280;28426;42.872;25.314;2023-04-27T11:46:43;96818.88;;;10.31;69.37
42771;BME280;28426;42.872;25.314;2023-04-27T11:49:14;96827.91;;;10.30;70.07
42771;BME280;28426;42.872;25.314;2023-04-27T11:51:48;96823.97;;;10.26;71.13
42771;BME280;28426;42.872;25.314;2023-04-27T11:54:27;96828.69;;;10.24;71.11
42771;BME280;28426;42.872;25.314;2023-04-27T11:57:04;96825.72;;;10.19;71.07
42771;BME280;28426;42.872;25.314;2023-04-27T11:59:34;96826.13;;;10.16;71.32
42771;BME280;28426;42.872;25.314;2023-04-27T12:02:06;96818.69;;;10.11;71.48
42771;BME280;28426;42.872;25.314;2023-04-27T12:04:36;96821.94;;;10.06;71.81
42771;BME280;28426;42.872;25.314;2023-04-27T12:07:10;96815.69;;;9.99;72.43
42771;BME280;28426;42.872;25.314;2023-04-27T12:09:41;96823.06;;;9.97;72.72
42771;BME280;28426;42.872;25.314;2023-04-27T12:12:12;96825.06;;;9.95;73.14
42771;BME280;28426;42.872;25.314;2023-04-27T12:14:44;96820.94;;;9.92;73.46
42771;BME280;28426;42.872;25.314;2023-04-27T12:17:15;96821.13;;;9.91;73.26
42771;BME280;28426;42.872;25.314;2023-04-27T12:19:46;96812.34;;;9.90;73.69
42771;BME280;28426;42.872;25.314;2023-04-27T12:22:20;96822.78;;;9.92;74.12
42771;BME280;28426;42.872;25.314;2023-04-27T12:24:51;96820.13;;;9.92;74.43
42771;BME280;28426;42.872;25.314;2023-04-27T12:27:21;96826.72;;;9.96;74.13
42771;BME280;28426;42.872;25.314;2023-04-27T12:29:53;96825.34;;;10.00;74.41
42771;BME280;28426;42.872;25.314;2023-04-27T12:32:26;96813.94;;;10.06;73.92
42771;BME280;28426;42.872;25.314;2023-04-27T12:34:57;96815.84;;;10.13;73.41
42771;BME280;28426;42.872;25.314;2023-04-27T12:37:33;96816.75;;;10.20;73.18
42771;BME280;28426;42.872;25.314;2023-04-27T12:40:06;96815.97;;;10.26;73.10
42771;BME280;28426;42.872;25.314;2023-04-27T12:42:38;96815.66;;;10.36;72.75
42771;BME280;28426;42.872;25.314;2023-04-27T12:45:09;96814.88;;;10.42;72.78
42771;BME280;28426;42.872;25.314;2023-04-27T12:47:40;96815.63;;;10.51;72.63
42771;BME280;28426;42.872;25.314;2023-04-27T12:50:27;96807.09;;;10.63;72.83
42771;BME280;28426;42.872;25.314;2023-04-27T12:53:01;96815.38;;;10.75;72.62
42771;BME280;28426;42.872;25.314;2023-04-27T12:55:32;96805.41;;;10.83;72.07
42771;BME280;28426;42.872;25.314;2023-04-27T12:58:03;96811.22;;;10.94;71.56
42771;BME280;28426;42.872;25.314;2023-04-27T13:00:34;96798.50;;;10.96;70.90
42771;BME280;28426;42.872;25.314;2023-04-27T13:03:05;96804.56;;;11.11;70.78
42771;BME280;28426;42.872;25.314;2023-04-27T13:05:36;96803.56;;;11.19;70.47
42771;BME280;28426;42.872;25.314;2023-04-27T13:08:09;96799.91;;;11.27;70.24
42771;BME280;28426;42.872;25.314;2023-04-27T13:10:40;96796.28;;;11.35;69.94
42771;BME280;28426;42.872;25.314;2023-04-27T13:13:11;96785.00;;;11.40;69.52
42771;BME280;28426;42.872;25.314;2023-04-27T13:15:42;96787.28;;;11.43;69.71
42771;BME280;28426;42.872;25.314;2023-04-27T13:18:13;96782.97;;;11.42;69.04
42771;BME280;28426;42.872;25.314;2023-04-27T13:20:44;96782.34;;;11.46;67.64
42771;BME280;28426;42.872;25.314;2023-04-27T13:23:17;96782.16;;;11.48;67.61
42771;BME280;28426;42.872;25.314;2023-04-27T13:25:48;96778.69;;;11.54;67.43